Calilegua, Argentina
Current Conditions -  °F | °C
As of 8:00 AM on Thursday 27 Nov 2014 (Local Time) from SASJ Reporting Station
Scattered Clouds Scattered Clouds  
Wind Chill: 68°   Ceiling: Unl
Heat Index: 68°   Visibility: 6mi
Dew Point: 63°   Wind: 12mph
Humidity: 83%   Direction: 320°NW
Pressure: 30.09"   Gusts: NA
Location:  23.78°S, 64.78°W
Report Text: SASJ 271100Z 32010KT 9999 SCT020 SCT10020/17 Q1019
Loading
Personal Weather Stations






























Interactive Weather Map New forecast layout! Learn more

10-Day Weather Forecast

Advertisements
Track Severe Weather on mobile